CMB844 Details

Departure: Paya Lebar Airport (WSAP)
Arrival: Diego Garcia (FJDG) at N/A
Route: ASUNA R469 PKU N633 PIBED R212 GUDUG
Notes: USTRANSCOM CONTRACT FLIGHT


Current Weather Information
WSAP 230700Z 16007KT 9000 VCTS FEW016CB FEW018TCU BKN160 31/25 Q1006
FJDG 230655Z 08011G20KT 9999 SCT025 SCT220 31/25 A2986 RMK SLP108 T03110248